sensor_id;sensor_type;location;lat;lon;timestamp;temperature;humidity
50907;DHT22;36882;27.680;85.304;2022-08-20T00:02:26;23.90;99.90
50907;DHT22;36882;27.680;85.304;2022-08-20T00:05:13;23.90;99.90
50907;DHT22;36882;27.680;85.304;2022-08-20T00:08:01;23.90;99.90
50907;DHT22;36882;27.680;85.304;2022-08-20T00:10:34;23.80;99.90
50907;DHT22;36882;27.680;85.304;2022-08-20T00:13:27;23.80;99.90
50907;DHT22;36882;27.680;85.304;2022-08-20T00:16:16;23.80;99.90
50907;DHT22;36882;27.680;85.304;2022-08-20T00:18:47;23.80;99.90
50907;DHT22;36882;27.680;85.304;2022-08-20T00:21:19;23.90;99.90
50907;DHT22;36882;27.680;85.304;2022-08-20T00:23:53;23.80;99.90
50907;DHT22;36882;27.680;85.304;2022-08-20T00:26:25;23.80;99.90
50907;DHT22;36882;27.680;85.304;2022-08-20T00:29:10;23.80;99.90
50907;DHT22;36882;27.680;85.304;2022-08-20T00:31:57;23.70;99.90
50907;DHT22;36882;27.680;85.304;2022-08-20T00:34:27;23.80;99.90
50907;DHT22;36882;27.680;85.304;2022-08-20T00:36:58;23.80;99.90
50907;DHT22;36882;27.680;85.304;2022-08-20T00:39:44;23.70;99.90
50907;DHT22;36882;27.680;85.304;2022-08-20T00:42:15;23.60;99.90
50907;DHT22;36882;27.680;85.304;2022-08-20T00:44:46;23.60;99.90
50907;DHT22;36882;27.680;85.304;2022-08-20T00:47:17;23.50;99.90
50907;DHT22;36882;27.680;85.304;2022-08-20T00:49:49;23.50;99.90
50907;DHT22;36882;27.680;85.304;2022-08-20T00:52:20;23.60;99.90
50907;DHT22;36882;27.680;85.304;2022-08-20T00:54:56;23.70;99.90
50907;DHT22;36882;27.680;85.304;2022-08-20T00:57:35;23.70;99.90
50907;DHT22;36882;27.680;85.304;2022-08-20T01:00:30;23.80;99.90
50907;DHT22;36882;27.680;85.304;2022-08-20T01:03:01;24.00;99.90
50907;DHT22;36882;27.680;85.304;2022-08-20T01:05:49;24.10;99.90
50907;DHT22;36882;27.680;85.304;2022-08-20T01:08:22;24.20;99.90
50907;DHT22;36882;27.680;85.304;2022-08-20T01:10:55;24.40;99.90
50907;DHT22;36882;27.680;85.304;2022-08-20T01:13:43;24.60;99.90
50907;DHT22;36882;27.680;85.304;2022-08-20T01:16:22;24.90;99.90
50907;DHT22;36882;27.680;85.304;2022-08-20T01:19:11;25.10;99.90
50907;DHT22;36882;27.680;85.304;2022-08-20T01:21:57;25.40;99.80
50907;DHT22;36882;27.680;85.304;2022-08-20T01:24:44;25.70;99.40
50907;DHT22;36882;27.680;85.304;2022-08-20T01:27:31;25.90;98.80
50907;DHT22;36882;27.680;85.304;2022-08-20T01:30:18;26.00;98.90
50907;DHT22;36882;27.680;85.304;2022-08-20T01:32:48;26.10;98.70
50907;DHT22;36882;27.680;85.304;2022-08-20T01:35:22;26.10;98.50
50907;DHT22;36882;27.680;85.304;2022-08-20T01:37:52;26.00;98.50
50907;DHT22;36882;27.680;85.304;2022-08-20T01:43:28;26.00;98.70
50907;DHT22;36882;27.680;85.304;2022-08-20T01:46:15;25.80;97.50
50907;DHT22;36882;27.680;85.304;2022-08-20T01:48:48;25.80;97.70
50907;DHT22;36882;27.680;85.304;2022-08-20T01:51:23;25.90;98.50
50907;DHT22;36882;27.680;85.304;2022-08-20T01:53:56;26.20;98.00
50907;DHT22;36882;27.680;85.304;2022-08-20T01:56:31;26.50;98.10
50907;DHT22;36882;27.680;85.304;2022-08-20T01:59:04;26.70;97.70
50907;DHT22;36882;27.680;85.304;2022-08-20T02:01:37;27.00;96.60
50907;DHT22;36882;27.680;85.304;2022-08-20T02:04:24;27.10;96.00
50907;DHT22;36882;27.680;85.304;2022-08-20T02:06:59;27.40;96.00
50907;DHT22;36882;27.680;85.304;2022-08-20T02:09:44;27.50;95.20
50907;DHT22;36882;27.680;85.304;2022-08-20T02:12:16;27.70;95.20
50907;DHT22;36882;27.680;85.304;2022-08-20T02:14:49;27.90;96.50
50907;DHT22;36882;27.680;85.304;2022-08-20T02:17:38;27.90;95.60
50907;DHT22;36882;27.680;85.304;2022-08-20T02:20:26;28.10;95.00
50907;DHT22;36882;27.680;85.304;2022-08-20T02:22:59;28.20;95.50
50907;DHT22;36882;27.680;85.304;2022-08-20T02:25:47;28.50;96.10
50907;DHT22;36882;27.680;85.304;2022-08-20T02:28:18;28.60;94.70
50907;DHT22;36882;27.680;85.304;2022-08-20T02:30:52;28.50;94.00
50907;DHT22;36882;27.680;85.304;2022-08-20T02:33:39;28.50;94.20
50907;DHT22;36882;27.680;85.304;2022-08-20T02:36:30;28.50;94.90
50907;DHT22;36882;27.680;85.304;2022-08-20T02:39:02;28.30;95.00
50907;DHT22;36882;27.680;85.304;2022-08-20T02:41:36;28.20;94.70
50907;DHT22;36882;27.680;85.304;2022-08-20T02:44:08;28.10;93.90
50907;DHT22;36882;27.680;85.304;2022-08-20T02:46:38;28.00;94.40
50907;DHT22;36882;27.680;85.304;2022-08-20T02:49:09;28.10;93.40
50907;DHT22;36882;27.680;85.304;2022-08-20T02:51:39;27.90;93.90
50907;DHT22;36882;27.680;85.304;2022-08-20T02:54:10;27.90;94.40
50907;DHT22;36882;27.680;85.304;2022-08-20T02:56:41;27.80;94.40
50907;DHT22;36882;27.680;85.304;2022-08-20T02:59:12;27.70;93.70
50907;DHT22;36882;27.680;85.304;2022-08-20T03:01:47;27.50;94.60
50907;DHT22;36882;27.680;85.304;2022-08-20T03:04:27;27.30;94.60
50907;DHT22;36882;27.680;85.304;2022-08-20T03:07:14;27.20;94.70
50907;DHT22;36882;27.680;85.304;2022-08-20T03:09:44;27.30;95.90
50907;DHT22;36882;27.680;85.304;2022-08-20T03:12:15;27.40;95.40
50907;DHT22;36882;27.680;85.304;2022-08-20T03:14:45;27.50;95.40
50907;DHT22;36882;27.680;85.304;2022-08-20T03:17:16;27.60;94.20
50907;DHT22;36882;27.680;85.304;2022-08-20T03:20:05;27.60;94.80
50907;DHT22;36882;27.680;85.304;2022-08-20T03:22:36;27.60;94.90
50907;DHT22;36882;27.680;85.304;2022-08-20T03:25:06;27.60;94.20
50907;DHT22;36882;27.680;85.304;2022-08-20T03:27:53;27.50;95.00
50907;DHT22;36882;27.680;85.304;2022-08-20T03:30:26;27.50;95.50
50907;DHT22;36882;27.680;85.304;2022-08-20T03:32:57;27.40;95.50
50907;DHT22;36882;27.680;85.304;2022-08-20T03:35:29;27.50;95.60
50907;DHT22;36882;27.680;85.304;2022-08-20T03:38:04;27.50;95.40
50907;DHT22;36882;27.680;85.304;2022-08-20T03:40:36;27.60;95.20
50907;DHT22;36882;27.680;85.304;2022-08-20T03:43:08;27.60;95.30
50907;DHT22;36882;27.680;85.304;2022-08-20T03:45:41;27.60;94.70
50907;DHT22;36882;27.680;85.304;2022-08-20T03:48:15;27.60;95.00
50907;DHT22;36882;27.680;85.304;2022-08-20T03:50:48;27.60;94.30
50907;DHT22;36882;27.680;85.304;2022-08-20T03:53:19;27.70;94.70
50907;DHT22;36882;27.680;85.304;2022-08-20T03:55:50;27.90;94.80
50907;DHT22;36882;27.680;85.304;2022-08-20T03:58:30;28.00;94.20
50907;DHT22;36882;27.680;85.304;2022-08-20T04:01:04;28.10;93.70
50907;DHT22;36882;27.680;85.304;2022-08-20T04:03:55;28.00;93.90
50907;DHT22;36882;27.680;85.304;2022-08-20T04:06:27;28.20;94.30
50907;DHT22;36882;27.680;85.304;2022-08-20T04:08:59;28.30;95.10
50907;DHT22;36882;27.680;85.304;2022-08-20T04:11:29;28.50;93.70
50907;DHT22;36882;27.680;85.304;2022-08-20T04:14:02;28.40;93.80
50907;DHT22;36882;27.680;85.304;2022-08-20T04:16:32;28.40;94.40
50907;DHT22;36882;27.680;85.304;2022-08-20T04:19:04;28.50;95.00
50907;DHT22;36882;27.680;85.304;2022-08-20T04:21:51;28.60;94.90
50907;DHT22;36882;27.680;85.304;2022-08-20T04:24:21;28.60;94.00
50907;DHT22;36882;27.680;85.304;2022-08-20T04:27:08;28.70;93.40
50907;DHT22;36882;27.680;85.304;2022-08-20T04:29:41;28.60;93.60
50907;DHT22;36882;27.680;85.304;2022-08-20T04:32:13;28.60;94.60
50907;DHT22;36882;27.680;85.304;2022-08-20T04:34:44;28.70;95.30
50907;DHT22;36882;27.680;85.304;2022-08-20T04:37:19;28.80;94.10
50907;DHT22;36882;27.680;85.304;2022-08-20T04:40:09;29.00;94.70
50907;DHT22;36882;27.680;85.304;2022-08-20T04:42:52;29.10;92.50
50907;DHT22;36882;27.680;85.304;2022-08-20T04:45:23;29.10;94.10
50907;DHT22;36882;27.680;85.304;2022-08-20T04:48:09;29.30;94.70
50907;DHT22;36882;27.680;85.304;2022-08-20T04:50:44;29.50;94.20
50907;DHT22;36882;27.680;85.304;2022-08-20T04:53:17;29.60;93.00
50907;DHT22;36882;27.680;85.304;2022-08-20T04:55:53;29.60;92.30
50907;DHT22;36882;27.680;85.304;2022-08-20T04:58:29;29.50;92.60
50907;DHT22;36882;27.680;85.304;2022-08-20T05:01:16;29.40;93.30
50907;DHT22;36882;27.680;85.304;2022-08-20T05:03:47;29.40;92.40
50907;DHT22;36882;27.680;85.304;2022-08-20T05:06:17;29.30;92.10
50907;DHT22;36882;27.680;85.304;2022-08-20T05:08:48;29.30;92.00
50907;DHT22;36882;27.680;85.304;2022-08-20T05:11:18;29.40;92.90
50907;DHT22;36882;27.680;85.304;2022-08-20T05:14:04;29.40;94.30
50907;DHT22;36882;27.680;85.304;2022-08-20T05:16:38;29.50;92.20
50907;DHT22;36882;27.680;85.304;2022-08-20T05:19:12;29.60;92.40
50907;DHT22;36882;27.680;85.304;2022-08-20T05:21:43;29.60;93.30
50907;DHT22;36882;27.680;85.304;2022-08-20T05:24:15;29.70;91.50
50907;DHT22;36882;27.680;85.304;2022-08-20T05:26:45;29.80;91.40
50907;DHT22;36882;27.680;85.304;2022-08-20T05:29:16;29.60;92.40
50907;DHT22;36882;27.680;85.304;2022-08-20T05:31:48;29.70;92.80
50907;DHT22;36882;27.680;85.304;2022-08-20T05:34:34;29.80;91.30
50907;DHT22;36882;27.680;85.304;2022-08-20T05:37:06;29.80;91.80
50907;DHT22;36882;27.680;85.304;2022-08-20T05:39:38;29.70;91.90
50907;DHT22;36882;27.680;85.304;2022-08-20T05:42:23;29.60;91.80
50907;DHT22;36882;27.680;85.304;2022-08-20T05:44:57;29.40;91.20
50907;DHT22;36882;27.680;85.304;2022-08-20T05:47:28;29.30;91.70
50907;DHT22;36882;27.680;85.304;2022-08-20T05:50:05;29.40;91.40
50907;DHT22;36882;27.680;85.304;2022-08-20T05:52:46;29.40;92.40
50907;DHT22;36882;27.680;85.304;2022-08-20T05:55:32;29.30;92.30
50907;DHT22;36882;27.680;85.304;2022-08-20T05:58:07;29.30;92.70
50907;DHT22;36882;27.680;85.304;2022-08-20T06:00:37;29.30;91.90
50907;DHT22;36882;27.680;85.304;2022-08-20T06:03:24;29.40;92.50
50907;DHT22;36882;27.680;85.304;2022-08-20T06:06:11;29.50;92.20
50907;DHT22;36882;27.680;85.304;2022-08-20T06:09:01;29.70;91.80
50907;DHT22;36882;27.680;85.304;2022-08-20T06:11:32;29.80;91.00
50907;DHT22;36882;27.680;85.304;2022-08-20T06:14:04;29.80;92.00
50907;DHT22;36882;27.680;85.304;2022-08-20T06:16:50;29.90;92.00
50907;DHT22;36882;27.680;85.304;2022-08-20T06:19:26;29.90;91.60
50907;DHT22;36882;27.680;85.304;2022-08-20T06:22:13;30.00;91.80
50907;DHT22;36882;27.680;85.304;2022-08-20T06:24:51;30.10;92.30
50907;DHT22;36882;27.680;85.304;2022-08-20T06:27:21;30.30;92.30
50907;DHT22;36882;27.680;85.304;2022-08-20T06:29:52;30.40;91.50
50907;DHT22;36882;27.680;85.304;2022-08-20T06:32:23;30.50;91.60
50907;DHT22;36882;27.680;85.304;2022-08-20T06:35:01;30.70;91.40
50907;DHT22;36882;27.680;85.304;2022-08-20T06:37:34;30.80;90.60
50907;DHT22;36882;27.680;85.304;2022-08-20T06:40:17;30.90;91.10
50907;DHT22;36882;27.680;85.304;2022-08-20T06:42:49;30.80;91.30
50907;DHT22;36882;27.680;85.304;2022-08-20T06:45:22;30.90;90.00
50907;DHT22;36882;27.680;85.304;2022-08-20T06:48:11;30.80;90.10
50907;DHT22;36882;27.680;85.304;2022-08-20T06:50:57;30.70;90.40
50907;DHT22;36882;27.680;85.304;2022-08-20T06:53:28;30.70;90.40
50907;DHT22;36882;27.680;85.304;2022-08-20T06:55:59;30.50;90.20
50907;DHT22;36882;27.680;85.304;2022-08-20T06:58:30;30.50;91.10
50907;DHT22;36882;27.680;85.304;2022-08-20T07:01:09;30.50;89.30
50907;DHT22;36882;27.680;85.304;2022-08-20T07:03:41;30.40;90.30
50907;DHT22;36882;27.680;85.304;2022-08-20T07:06:24;30.40;90.20
50907;DHT22;36882;27.680;85.304;2022-08-20T07:08:55;30.30;90.10
50907;DHT22;36882;27.680;85.304;2022-08-20T07:11:26;30.10;90.60
50907;DHT22;36882;27.680;85.304;2022-08-20T07:13:57;30.20;91.00
50907;DHT22;36882;27.680;85.304;2022-08-20T07:16:28;30.30;90.30
50907;DHT22;36882;27.680;85.304;2022-08-20T07:18:59;30.40;91.30
50907;DHT22;36882;27.680;85.304;2022-08-20T07:21:30;30.30;90.80
50907;DHT22;36882;27.680;85.304;2022-08-20T07:24:01;30.30;91.30
50907;DHT22;36882;27.680;85.304;2022-08-20T07:41:49;29.20;91.90
50907;DHT22;36882;27.680;85.304;2022-08-20T07:44:32;29.20;92.70
50907;DHT22;36882;27.680;85.304;2022-08-20T07:47:03;29.60;92.40
50907;DHT22;36882;27.680;85.304;2022-08-20T07:49:39;30.10;91.60
50907;DHT22;36882;27.680;85.304;2022-08-20T07:52:25;30.50;90.30
50907;DHT22;36882;27.680;85.304;2022-08-20T07:54:55;30.80;90.10
50907;DHT22;36882;27.680;85.304;2022-08-20T07:57:26;30.80;90.60
50907;DHT22;36882;27.680;85.304;2022-08-20T08:00:14;31.00;89.80
50907;DHT22;36882;27.680;85.304;2022-08-20T08:02:45;31.20;90.80
50907;DHT22;36882;27.680;85.304;2022-08-20T08:05:16;31.40;90.70
50907;DHT22;36882;27.680;85.304;2022-08-20T08:07:47;31.40;90.10
50907;DHT22;36882;27.680;85.304;2022-08-20T08:10:20;31.30;88.40
50907;DHT22;36882;27.680;85.304;2022-08-20T08:12:54;31.10;90.00
50907;DHT22;36882;27.680;85.304;2022-08-20T08:15:32;31.10;91.00
50907;DHT22;36882;27.680;85.304;2022-08-20T08:18:09;31.00;90.70
50907;DHT22;36882;27.680;85.304;2022-08-20T08:20:56;30.90;91.00
50907;DHT22;36882;27.680;85.304;2022-08-20T08:23:42;30.80;90.00
50907;DHT22;36882;27.680;85.304;2022-08-20T08:26:15;30.60;90.30
50907;DHT22;36882;27.680;85.304;2022-08-20T08:28:46;30.60;90.80
50907;DHT22;36882;27.680;85.304;2022-08-20T08:31:33;30.50;90.70
50907;DHT22;36882;27.680;85.304;2022-08-20T08:34:03;30.50;91.20
50907;DHT22;36882;27.680;85.304;2022-08-20T08:36:39;30.60;91.20
50907;DHT22;36882;27.680;85.304;2022-08-20T08:39:29;30.70;91.20
50907;DHT22;36882;27.680;85.304;2022-08-20T08:42:02;30.70;91.20
50907;DHT22;36882;27.680;85.304;2022-08-20T08:44:45;30.80;91.90
50907;DHT22;36882;27.680;85.304;2022-08-20T08:47:25;30.80;90.60
50907;DHT22;36882;27.680;85.304;2022-08-20T08:49:56;30.90;91.10
50907;DHT22;36882;27.680;85.304;2022-08-20T08:52:29;31.00;90.90
50907;DHT22;36882;27.680;85.304;2022-08-20T08:55:19;31.00;90.50
50907;DHT22;36882;27.680;85.304;2022-08-20T08:58:06;31.00;90.50
50907;DHT22;36882;27.680;85.304;2022-08-20T09:00:44;31.10;90.90
50907;DHT22;36882;27.680;85.304;2022-08-20T09:03:30;31.10;89.90
50907;DHT22;36882;27.680;85.304;2022-08-20T09:06:03;31.10;91.00
50907;DHT22;36882;27.680;85.304;2022-08-20T09:08:42;31.10;90.10
50907;DHT22;36882;27.680;85.304;2022-08-20T09:11:14;31.10;90.70
50907;DHT22;36882;27.680;85.304;2022-08-20T09:13:44;31.10;90.50
50907;DHT22;36882;27.680;85.304;2022-08-20T09:16:15;31.10;91.00
50907;DHT22;36882;27.680;85.304;2022-08-20T09:18:45;31.00;90.50
50907;DHT22;36882;27.680;85.304;2022-08-20T09:21:16;30.80;90.80
50907;DHT22;36882;27.680;85.304;2022-08-20T09:23:47;30.70;91.10
50907;DHT22;36882;27.680;85.304;2022-08-20T09:26:17;30.50;91.20
50907;DHT22;36882;27.680;85.304;2022-08-20T09:28:51;30.30;91.70
50907;DHT22;36882;27.680;85.304;2022-08-20T09:31:22;30.00;91.60
50907;DHT22;36882;27.680;85.304;2022-08-20T09:33:53;29.80;91.60
50907;DHT22;36882;27.680;85.304;2022-08-20T09:36:23;29.70;91.80
50907;DHT22;36882;27.680;85.304;2022-08-20T09:38:59;29.60;91.60
50907;DHT22;36882;27.680;85.304;2022-08-20T09:41:31;29.60;92.30
50907;DHT22;36882;27.680;85.304;2022-08-20T09:44:02;29.60;92.70
50907;DHT22;36882;27.680;85.304;2022-08-20T09:46:33;29.50;93.00
50907;DHT22;36882;27.680;85.304;2022-08-20T09:49:04;29.50;93.00
50907;DHT22;36882;27.680;85.304;2022-08-20T09:51:37;29.50;92.90
50907;DHT22;36882;27.680;85.304;2022-08-20T09:54:08;29.40;92.90
50907;DHT22;36882;27.680;85.304;2022-08-20T09:56:38;29.20;93.30
50907;DHT22;36882;27.680;85.304;2022-08-20T09:59:08;29.20;93.50
50907;DHT22;36882;27.680;85.304;2022-08-20T10:01:39;29.30;93.70
50907;DHT22;36882;27.680;85.304;2022-08-20T10:04:09;29.40;93.00
50907;DHT22;36882;27.680;85.304;2022-08-20T10:06:40;28.90;93.30
50907;DHT22;36882;27.680;85.304;2022-08-20T10:09:11;29.50;93.50
50907;DHT22;36882;27.680;85.304;2022-08-20T10:11:41;29.60;93.40
50907;DHT22;36882;27.680;85.304;2022-08-20T10:14:15;29.60;92.90
50907;DHT22;36882;27.680;85.304;2022-08-20T10:16:45;29.70;92.80
50907;DHT22;36882;27.680;85.304;2022-08-20T10:19:16;29.80;92.90
50907;DHT22;36882;27.680;85.304;2022-08-20T10:21:52;30.00;92.50
50907;DHT22;36882;27.680;85.304;2022-08-20T10:24:23;30.10;92.80
50907;DHT22;36882;27.680;85.304;2022-08-20T10:26:56;30.10;92.30
50907;DHT22;36882;27.680;85.304;2022-08-20T10:29:28;30.20;92.30
50907;DHT22;36882;27.680;85.304;2022-08-20T10:32:09;30.30;92.40
50907;DHT22;36882;27.680;85.304;2022-08-20T10:34:43;30.30;91.90
50907;DHT22;36882;27.680;85.304;2022-08-20T10:37:20;30.30;92.10
50907;DHT22;36882;27.680;85.304;2022-08-20T10:39:54;30.20;91.60
50907;DHT22;36882;27.680;85.304;2022-08-20T10:42:28;30.10;91.50
50907;DHT22;36882;27.680;85.304;2022-08-20T10:44:59;30.10;91.30
50907;DHT22;36882;27.680;85.304;2022-08-20T10:47:31;30.00;91.30
50907;DHT22;36882;27.680;85.304;2022-08-20T10:50:04;30.10;91.30
50907;DHT22;36882;27.680;85.304;2022-08-20T10:52:35;30.10;92.10
50907;DHT22;36882;27.680;85.304;2022-08-20T10:55:06;30.10;91.20
50907;DHT22;36882;27.680;85.304;2022-08-20T10:57:39;30.10;91.90
50907;DHT22;36882;27.680;85.304;2022-08-20T11:00:13;30.20;91.60
50907;DHT22;36882;27.680;85.304;2022-08-20T11:02:45;30.10;91.80
50907;DHT22;36882;27.680;85.304;2022-08-20T11:05:16;30.10;91.50
50907;DHT22;36882;27.680;85.304;2022-08-20T11:07:46;30.00;91.30
50907;DHT22;36882;27.680;85.304;2022-08-20T11:10:26;30.00;91.30
50907;DHT22;36882;27.680;85.304;2022-08-20T11:12:57;30.10;91.70
50907;DHT22;36882;27.680;85.304;2022-08-20T11:15:28;30.10;92.10
50907;DHT22;36882;27.680;85.304;2022-08-20T11:17:58;30.00;92.10
50907;DHT22;36882;27.680;85.304;2022-08-20T11:20:31;29.90;92.20
50907;DHT22;36882;27.680;85.304;2022-08-20T11:23:02;29.70;92.70
50907;DHT22;36882;27.680;85.304;2022-08-20T11:25:32;29.60;92.40
50907;DHT22;36882;27.680;85.304;2022-08-20T11:28:06;29.60;92.50
50907;DHT22;36882;27.680;85.304;2022-08-20T11:30:37;29.50;92.50
50907;DHT22;36882;27.680;85.304;2022-08-20T11:33:07;29.50;92.90
50907;DHT22;36882;27.680;85.304;2022-08-20T11:35:37;29.50;93.00
50907;DHT22;36882;27.680;85.304;2022-08-20T11:38:17;29.40;93.00
50907;DHT22;36882;27.680;85.304;2022-08-20T11:40:48;29.40;93.10
50907;DHT22;36882;27.680;85.304;2022-08-20T11:43:18;29.30;93.50
50907;DHT22;36882;27.680;85.304;2022-08-20T11:45:53;29.40;94.30
50907;DHT22;36882;27.680;85.304;2022-08-20T11:48:24;29.40;94.00
50907;DHT22;36882;27.680;85.304;2022-08-20T11:50:54;29.30;94.20
50907;DHT22;36882;27.680;85.304;2022-08-20T11:53:25;29.30;93.50
50907;DHT22;36882;27.680;85.304;2022-08-20T11:55:57;29.20;93.90
50907;DHT22;36882;27.680;85.304;2022-08-20T11:58:30;29.30;93.80
50907;DHT22;36882;27.680;85.304;2022-08-20T12:01:04;29.20;93.90
50907;DHT22;36882;27.680;85.304;2022-08-20T12:03:35;29.10;94.00
50907;DHT22;36882;27.680;85.304;2022-08-20T12:06:05;29.00;93.80
50907;DHT22;36882;27.680;85.304;2022-08-20T12:08:36;28.90;94.00
50907;DHT22;36882;27.680;85.304;2022-08-20T12:11:07;28.90;94.00
50907;DHT22;36882;27.680;85.304;2022-08-20T12:13:38;28.80;94.40
50907;DHT22;36882;27.680;85.304;2022-08-20T12:16:17;28.70;94.20
50907;DHT22;36882;27.680;85.304;2022-08-20T12:18:48;28.60;94.50
50907;DHT22;36882;27.680;85.304;2022-08-20T12:21:33;28.60;94.40
50907;DHT22;36882;27.680;85.304;2022-08-20T12:24:04;28.60;94.60
50907;DHT22;36882;27.680;85.304;2022-08-20T12:26:34;28.50;94.50
50907;DHT22;36882;27.680;85.304;2022-08-20T12:29:06;28.40;94.60
50907;DHT22;36882;27.680;85.304;2022-08-20T12:31:36;28.30;95.00
50907;DHT22;36882;27.680;85.304;2022-08-20T12:34:22;28.10;94.80
50907;DHT22;36882;27.680;85.304;2022-08-20T12:37:13;28.00;94.90
50907;DHT22;36882;27.680;85.304;2022-08-20T12:39:48;28.00;94.90
50907;DHT22;36882;27.680;85.304;2022-08-20T12:42:34;27.90;94.40
50907;DHT22;36882;27.680;85.304;2022-08-20T12:45:05;27.90;94.70
50907;DHT22;36882;27.680;85.304;2022-08-20T12:47:39;27.90;94.30
50907;DHT22;36882;27.680;85.304;2022-08-20T12:50:14;27.90;94.30
50907;DHT22;36882;27.680;85.304;2022-08-20T12:52:45;27.80;94.10
50907;DHT22;36882;27.680;85.304;2022-08-20T12:55:18;27.80;94.00
50907;DHT22;36882;27.680;85.304;2022-08-20T12:57:52;27.70;94.10
50907;DHT22;36882;27.680;85.304;2022-08-20T13:00:26;27.80;94.10
50907;DHT22;36882;27.680;85.304;2022-08-20T13:03:00;27.70;94.20
50907;DHT22;36882;27.680;85.304;2022-08-20T13:05:31;27.60;94.70
50907;DHT22;36882;27.680;85.304;2022-08-20T13:08:18;27.50;94.70
50907;DHT22;36882;27.680;85.304;2022-08-20T13:10:48;27.50;94.60
50907;DHT22;36882;27.680;85.304;2022-08-20T13:13:19;27.40;94.90
50907;DHT22;36882;27.680;85.304;2022-08-20T13:15:50;27.30;95.10
50907;DHT22;36882;27.680;85.304;2022-08-20T13:18:20;27.30;94.90
50907;DHT22;36882;27.680;85.304;2022-08-20T13:20:51;27.30;94.80
50907;DHT22;36882;27.680;85.304;2022-08-20T13:23:21;27.40;94.80
50907;DHT22;36882;27.680;85.304;2022-08-20T13:25:52;27.40;94.60
50907;DHT22;36882;27.680;85.304;2022-08-20T13:28:37;27.50;94.50
50907;DHT22;36882;27.680;85.304;2022-08-20T13:31:08;27.50;94.40
50907;DHT22;36882;27.680;85.304;2022-08-20T13:33:39;27.50;94.60
50907;DHT22;36882;27.680;85.304;2022-08-20T13:36:27;27.50;94.30
50907;DHT22;36882;27.680;85.304;2022-08-20T13:38:57;27.50;94.50
50907;DHT22;36882;27.680;85.304;2022-08-20T13:41:43;27.40;94.80
50907;DHT22;36882;27.680;85.304;2022-08-20T13:44:14;27.40;94.90
50907;DHT22;36882;27.680;85.304;2022-08-20T13:46:44;27.40;94.90
50907;DHT22;36882;27.680;85.304;2022-08-20T13:49:17;27.40;94.90
50907;DHT22;36882;27.680;85.304;2022-08-20T13:51:48;27.40;95.10
50907;DHT22;36882;27.680;85.304;2022-08-20T13:54:18;27.30;95.50
50907;DHT22;36882;27.680;85.304;2022-08-20T13:57:14;27.30;95.30
50907;DHT22;36882;27.680;85.304;2022-08-20T13:59:49;27.30;95.50
50907;DHT22;36882;27.680;85.304;2022-08-20T14:02:20;27.30;95.50
50907;DHT22;36882;27.680;85.304;2022-08-20T14:04:51;27.30;95.30
50907;DHT22;36882;27.680;85.304;2022-08-20T14:07:25;27.20;95.20
50907;DHT22;36882;27.680;85.304;2022-08-20T14:10:04;27.20;95.60
50907;DHT22;36882;27.680;85.304;2022-08-20T14:12:35;27.20;95.70
50907;DHT22;36882;27.680;85.304;2022-08-20T14:15:06;27.10;95.60
50907;DHT22;36882;27.680;85.304;2022-08-20T14:17:51;27.10;96.10
50907;DHT22;36882;27.680;85.304;2022-08-20T14:20:26;27.10;96.00
50907;DHT22;36882;27.680;85.304;2022-08-20T14:22:59;27.10;95.80
50907;DHT22;36882;27.680;85.304;2022-08-20T14:25:30;27.10;95.70
50907;DHT22;36882;27.680;85.304;2022-08-20T14:28:20;27.20;95.80
50907;DHT22;36882;27.680;85.304;2022-08-20T14:31:06;27.20;96.00
50907;DHT22;36882;27.680;85.304;2022-08-20T14:33:40;27.20;96.20
50907;DHT22;36882;27.680;85.304;2022-08-20T14:36:11;27.20;96.00
50907;DHT22;36882;27.680;85.304;2022-08-20T14:38:42;27.20;96.10
50907;DHT22;36882;27.680;85.304;2022-08-20T14:41:14;27.10;96.20
50907;DHT22;36882;27.680;85.304;2022-08-20T14:43:44;27.10;95.90
50907;DHT22;36882;27.680;85.304;2022-08-20T14:46:15;27.00;96.10
50907;DHT22;36882;27.680;85.304;2022-08-20T14:48:45;27.00;96.10
50907;DHT22;36882;27.680;85.304;2022-08-20T14:51:20;27.10;96.30
50907;DHT22;36882;27.680;85.304;2022-08-20T14:53:51;27.10;96.20
50907;DHT22;36882;27.680;85.304;2022-08-20T14:56:21;27.10;95.90
50907;DHT22;36882;27.680;85.304;2022-08-20T14:58:51;27.10;96.10
50907;DHT22;36882;27.680;85.304;2022-08-20T15:01:22;27.10;96.40
50907;DHT22;36882;27.680;85.304;2022-08-20T15:03:53;27.10;96.50
50907;DHT22;36882;27.680;85.304;2022-08-20T15:06:23;27.00;96.40
50907;DHT22;36882;27.680;85.304;2022-08-20T15:08:54;27.00;96.30
50907;DHT22;36882;27.680;85.304;2022-08-20T15:11:25;26.90;96.50
50907;DHT22;36882;27.680;85.304;2022-08-20T15:14:01;26.90;96.60
50907;DHT22;36882;27.680;85.304;2022-08-20T15:16:47;26.80;96.70
50907;DHT22;36882;27.680;85.304;2022-08-20T15:19:18;26.80;96.90
50907;DHT22;36882;27.680;85.304;2022-08-20T15:21:49;26.70;96.80
50907;DHT22;36882;27.680;85.304;2022-08-20T15:24:19;26.70;96.80
50907;DHT22;36882;27.680;85.304;2022-08-20T15:26:50;26.70;96.70
50907;DHT22;36882;27.680;85.304;2022-08-20T15:29:21;26.70;97.00
50907;DHT22;36882;27.680;85.304;2022-08-20T15:31:51;26.70;97.10
50907;DHT22;36882;27.680;85.304;2022-08-20T15:34:39;26.60;97.00
50907;DHT22;36882;27.680;85.304;2022-08-20T15:37:20;26.60;97.00
50907;DHT22;36882;27.680;85.304;2022-08-20T15:39:51;26.60;97.20
50907;DHT22;36882;27.680;85.304;2022-08-20T15:42:22;26.50;97.20
50907;DHT22;36882;27.680;85.304;2022-08-20T15:44:52;26.50;97.30
50907;DHT22;36882;27.680;85.304;2022-08-20T15:47:26;26.50;97.20
50907;DHT22;36882;27.680;85.304;2022-08-20T15:50:21;26.50;97.40
50907;DHT22;36882;27.680;85.304;2022-08-20T15:52:57;26.50;97.50
50907;DHT22;36882;27.680;85.304;2022-08-20T15:55:31;26.50;97.40
50907;DHT22;36882;27.680;85.304;2022-08-20T15:58:18;26.50;97.40
50907;DHT22;36882;27.680;85.304;2022-08-20T16:01:07;26.60;97.40
50907;DHT22;36882;27.680;85.304;2022-08-20T16:04:22;26.50;97.20
50907;DHT22;36882;27.680;85.304;2022-08-20T16:07:38;26.50;97.50
50907;DHT22;36882;27.680;85.304;2022-08-20T16:13:07;26.40;97.60
50907;DHT22;36882;27.680;85.304;2022-08-20T16:15:57;26.40;97.70
50907;DHT22;36882;27.680;85.304;2022-08-20T16:18:34;26.30;97.70
50907;DHT22;36882;27.680;85.304;2022-08-20T16:21:11;26.30;98.00
50907;DHT22;36882;27.680;85.304;2022-08-20T16:23:43;26.20;98.00
50907;DHT22;36882;27.680;85.304;2022-08-20T16:26:41;26.20;98.10
50907;DHT22;36882;27.680;85.304;2022-08-20T16:32:39;26.20;98.10